createdAt,value
2018-08-30T00:01:41.604Z,80.10
2018-08-30T00:04:11.670Z,81.28
2018-08-30T00:06:42.158Z,81.42
2018-08-30T00:09:11.858Z,81.16
2018-08-30T00:11:41.652Z,81.61
2018-08-30T00:14:11.787Z,82.64
2018-08-30T00:16:41.823Z,83.01
2018-08-30T00:19:10.989Z,82.82
2018-08-30T00:21:42.794Z,84.36
2018-08-30T00:24:11.929Z,85.01
2018-08-30T00:26:41.232Z,85.87
2018-08-30T00:29:10.811Z,86.41
2018-08-30T00:31:40.937Z,87.45
2018-08-30T00:34:10.160Z,87.21
2018-08-30T00:36:57.701Z,85.40
2018-08-30T00:39:26.940Z,84.96
2018-08-30T00:41:56.003Z,83.50
2018-08-30T00:44:24.960Z,82.71
2018-08-30T00:46:53.985Z,82.33
2018-08-30T00:49:37.367Z,81.72
2018-08-30T00:52:06.570Z,81.69
2018-08-30T00:54:35.580Z,83.04
2018-08-30T00:57:04.623Z,85.90
2018-08-30T00:59:33.706Z,84.95
2018-08-30T01:02:02.935Z,81.33
2018-08-30T01:04:32.006Z,80.72
2018-08-30T01:07:01.430Z,80.86
2018-08-30T01:09:30.453Z,81.83
2018-08-30T01:11:59.800Z,82.49
2018-08-30T01:14:29.866Z,84.32
2018-08-30T01:17:00.694Z,84.39
2018-08-30T01:19:29.908Z,83.48
2018-08-30T01:21:58.923Z,83.01
2018-08-30T01:24:28.327Z,84.10
2018-08-30T01:26:57.496Z,85.45
2018-08-30T01:29:26.604Z,86.01
2018-08-30T01:31:55.779Z,85.01
2018-08-30T01:34:24.824Z,85.61
2018-08-30T01:36:54.100Z,87.08
2018-08-30T01:39:23.191Z,87.85
2018-08-30T01:41:52.301Z,87.94
2018-08-30T01:44:23.599Z,86.58
2018-08-30T01:46:53.022Z,86.87
2018-08-30T01:49:22.069Z,87.22
2018-08-30T01:51:51.158Z,87.30
2018-08-30T01:54:20.275Z,87.25
2018-08-30T01:56:49.412Z,86.64
2018-08-30T01:59:18.636Z,85.10
2018-08-30T02:01:47.809Z,82.27
2018-08-30T02:04:16.885Z,82.63
2018-08-30T02:06:45.985Z,82.73
2018-08-30T02:09:15.231Z,83.51
2018-08-30T02:11:44.309Z,85.06
2018-08-30T02:14:13.519Z,86.47
2018-08-30T02:16:42.577Z,87.74
2018-08-30T02:19:11.794Z,87.32
2018-08-30T02:21:41.918Z,87.12
2018-08-30T02:24:10.951Z,86.57
2018-08-30T02:26:40.611Z,86.89
2018-08-30T02:29:09.837Z,87.55
2018-08-30T02:31:39.618Z,86.16
2018-08-30T02:34:08.754Z,84.65
2018-08-30T02:36:38.331Z,84.01
2018-08-30T02:39:08.969Z,83.65
2018-08-30T02:41:38.600Z,84.27
2018-08-30T02:44:07.752Z,84.82
2018-08-30T02:46:37.408Z,85.12
2018-08-30T02:49:06.594Z,85.35
2018-08-30T02:51:35.729Z,85.34
2018-08-30T02:54:05.141Z,84.70
2018-08-30T02:57:00.373Z,84.52
2018-08-30T02:59:29.810Z,85.42
2018-08-30T03:01:59.067Z,84.21
2018-08-30T03:04:48.360Z,84.58
2018-08-30T03:07:17.803Z,86.86
2018-08-30T03:09:46.898Z,85.79
2018-08-30T03:12:15.915Z,88.60
2018-08-30T03:14:46.544Z,86.34
2018-08-30T03:17:15.756Z,85.74
2018-08-30T03:19:44.862Z,84.75
2018-08-30T03:22:13.903Z,85.22
2018-08-30T03:24:43.031Z,87.63
2018-08-30T03:27:12.092Z,85.08
2018-08-30T03:29:41.434Z,85.82
2018-08-30T03:32:10.877Z,85.12
2018-08-30T03:34:40.580Z,86.49
2018-08-30T03:37:10.653Z,86.87
2018-08-30T03:39:56.003Z,86.54
2018-08-30T03:42:25.156Z,85.85
2018-08-30T03:44:54.309Z,85.16
2018-08-30T03:47:23.465Z,86.08
2018-08-30T03:49:52.459Z,85.72
2018-08-30T03:52:21.503Z,84.53
2018-08-30T03:54:50.854Z,82.46
2018-08-30T03:57:20.123Z,82.30
2018-08-30T04:00:22.392Z,81.59
2018-08-30T04:02:51.791Z,85.35
2018-08-30T04:05:20.890Z,85.91
2018-08-30T04:07:50.003Z,83.53
2018-08-30T04:10:20.833Z,83.14
2018-08-30T04:12:49.892Z,81.33
2018-08-30T04:15:18.901Z,81.42
2018-08-30T04:17:47.961Z,82.87
2018-08-30T04:20:18.997Z,84.26
2018-08-30T04:22:48.134Z,86.27
2018-08-30T04:25:19.492Z,85.06
2018-08-30T04:27:48.552Z,84.74
2018-08-30T04:30:19.693Z,87.98
2018-08-30T04:32:48.660Z,88.82
2018-08-30T04:35:19.953Z,87.99
2018-08-30T04:37:49.055Z,91.79
2018-08-30T04:40:20.795Z,91.69
2018-08-30T04:42:49.891Z,89.71
2018-08-30T04:45:20.587Z,89.76
2018-08-30T04:47:49.649Z,90.20
2018-08-30T04:50:21.434Z,89.84
2018-08-30T04:52:50.523Z,90.48
2018-08-30T04:55:20.360Z,90.09
2018-08-30T04:57:49.407Z,88.59
2018-08-30T05:00:21.147Z,88.53
2018-08-30T05:02:50.298Z,87.25
2018-08-30T05:05:23.092Z,86.57
2018-08-30T05:08:00.885Z,85.06
2018-08-30T05:10:32.027Z,85.63
2018-08-30T05:13:02.644Z,85.59
2018-08-30T05:15:32.040Z,84.36
2018-08-30T05:18:01.271Z,83.00
2018-08-30T05:20:31.190Z,81.21
2018-08-30T05:23:00.374Z,79.08
2018-08-30T05:25:29.339Z,78.51
2018-08-30T05:28:01.743Z,77.87
2018-08-30T05:30:32.735Z,76.85
2018-08-30T05:33:02.298Z,77.02
2018-08-30T05:35:31.365Z,79.05
2018-08-30T05:38:00.268Z,80.26
2018-08-30T05:40:29.474Z,80.26
2018-08-30T05:43:00.733Z,81.50
2018-08-30T05:45:29.916Z,82.99
2018-08-30T05:47:58.927Z,82.77
2018-08-30T05:50:38.470Z,81.07
2018-08-30T05:53:11.864Z,78.35
2018-08-30T05:55:41.772Z,76.26
2018-08-30T05:58:11.736Z,74.63
2018-08-30T06:00:41.524Z,71.30
2018-08-30T06:03:10.735Z,70.83
2018-08-30T06:05:43.249Z,69.13
2018-08-30T06:08:15.066Z,67.30
2018-08-30T06:10:44.249Z,67.32
2018-08-30T06:13:14.944Z,64.85
2018-08-30T06:15:45.424Z,63.35
2018-08-30T06:18:14.597Z,62.70
2018-08-30T06:27:10.936Z,62.10
2018-08-30T06:32:53.695Z,66.25
2018-08-30T06:35:22.662Z,66.90
2018-08-30T06:37:52.892Z,69.50
2018-08-30T06:40:21.955Z,69.83
2018-08-30T06:42:50.978Z,72.28
2018-08-30T06:45:21.283Z,71.25
2018-08-30T06:47:50.335Z,69.01
2018-08-30T06:50:23.303Z,65.60
2018-08-30T06:52:52.298Z,62.51
2018-08-30T06:55:21.352Z,59.48
2018-08-30T06:57:50.382Z,59.32
2018-08-30T07:00:22.407Z,56.42
2018-08-30T07:02:51.508Z,57.03
2018-08-30T07:05:22.482Z,56.90
2018-08-30T07:07:51.575Z,56.22
2018-08-30T07:10:24.172Z,55.91
2018-08-30T07:12:53.279Z,57.06
2018-08-30T07:15:22.818Z,56.24
2018-08-30T07:17:51.976Z,57.28
2018-08-30T07:20:22.899Z,55.17
2018-08-30T07:22:51.844Z,55.13
2018-08-30T07:25:21.317Z,54.62
2018-08-30T07:27:50.426Z,54.13
2018-08-30T07:30:23.683Z,54.42
2018-08-30T07:32:52.783Z,53.35
2018-08-30T07:35:22.796Z,54.96
2018-08-30T07:37:51.905Z,54.60
2018-08-30T07:40:23.551Z,55.29
2018-08-30T07:42:52.651Z,53.60
2018-08-30T07:45:22.341Z,52.90
2018-08-30T07:47:51.409Z,52.99
2018-08-30T07:50:23.252Z,53.17
2018-08-30T07:52:52.427Z,52.16
2018-08-30T07:55:22.283Z,51.63
2018-08-30T07:57:51.355Z,51.59
2018-08-30T08:00:25.213Z,49.55
2018-08-30T08:02:54.744Z,51.68
2018-08-30T08:05:24.070Z,54.77
2018-08-30T08:07:53.146Z,51.63
2018-08-30T08:10:23.169Z,56.41
2018-08-30T08:12:52.213Z,53.53
2018-08-30T08:15:22.523Z,50.53
2018-08-30T08:17:51.700Z,51.07
2018-08-30T08:20:22.257Z,51.35
2018-08-30T08:22:51.371Z,53.35
2018-08-30T08:25:21.650Z,56.43
2018-08-30T08:48:07.262Z,47.26
2018-08-30T08:50:36.328Z,46.25
2018-08-30T08:53:05.387Z,47.02
2018-08-30T08:55:34.396Z,44.91
2018-08-30T08:58:03.518Z,45.28
2018-08-30T09:00:32.550Z,45.21
2018-08-30T09:03:01.519Z,47.51
2018-08-30T09:05:30.580Z,46.45
2018-08-30T09:07:59.586Z,45.43
2018-08-30T09:10:28.716Z,45.40
2018-08-30T09:12:57.771Z,49.90
2018-08-30T09:15:26.726Z,49.83
2018-08-30T09:17:55.707Z,50.10
2018-08-30T09:20:31.417Z,51.03
2018-08-30T09:23:00.555Z,50.60
2018-08-30T09:25:29.542Z,49.52
2018-08-30T09:27:58.580Z,50.43
2018-08-30T09:30:27.639Z,46.09
2018-08-30T09:32:56.696Z,48.10
2018-08-30T09:35:25.767Z,47.50
2018-08-30T09:37:54.780Z,47.11
2018-08-30T09:40:24.552Z,47.89
2018-08-30T09:42:53.722Z,48.38
2018-08-30T09:45:22.772Z,51.13
2018-08-30T09:47:51.776Z,51.28
2018-08-30T09:50:31.491Z,52.13
2018-08-30T09:53:00.480Z,52.01
2018-08-30T09:55:29.521Z,50.34
2018-08-30T09:57:58.692Z,47.84
2018-08-30T10:00:32.602Z,50.20
2018-08-30T10:03:01.720Z,47.51
2018-08-30T10:05:30.688Z,50.16
2018-08-30T10:07:59.613Z,49.12
2018-08-30T10:10:28.753Z,48.82
2018-08-30T10:12:57.775Z,49.17
2018-08-30T10:15:26.853Z,47.24
2018-08-30T10:17:55.936Z,49.38
2018-08-30T10:20:24.940Z,49.43
2018-08-30T10:22:54.052Z,50.12
2018-08-30T10:25:23.219Z,48.41
2018-08-30T10:27:52.309Z,49.04
2018-08-30T10:30:24.336Z,49.60
2018-08-30T10:32:53.322Z,49.96
2018-08-30T10:35:22.769Z,49.99
2018-08-30T10:37:51.795Z,50.58
2018-08-30T10:40:23.458Z,49.56
2018-08-30T10:42:52.591Z,46.23
2018-08-30T10:45:21.776Z,45.21
2018-08-30T10:47:50.759Z,42.92
2018-08-30T10:50:23.799Z,43.38
2018-08-30T10:52:53.516Z,41.86
2018-08-30T10:55:22.880Z,41.77
2018-08-30T10:57:56.575Z,42.14
2018-08-30T11:00:25.947Z,37.81
2018-08-30T11:02:55.261Z,38.97
2018-08-30T11:05:24.467Z,40.43
2018-08-30T11:07:54.887Z,39.64
2018-08-30T11:10:25.770Z,42.13
2018-08-30T11:12:56.978Z,41.25
2018-08-30T11:15:26.144Z,39.46
2018-08-30T11:17:55.331Z,41.14
2018-08-30T11:20:24.395Z,38.95
2018-08-30T11:22:53.415Z,39.07
2018-08-30T11:25:22.421Z,38.14
2018-08-30T11:27:51.411Z,39.43
2018-08-30T11:30:22.969Z,39.86
2018-08-30T11:32:52.058Z,39.21
2018-08-30T11:35:23.450Z,39.73
2018-08-30T11:37:52.643Z,38.34
2018-08-30T11:40:23.852Z,37.40
2018-08-30T11:42:53.988Z,37.75
2018-08-30T11:45:23.193Z,37.58
2018-08-30T11:47:52.399Z,40.04
2018-08-30T11:50:43.907Z,38.29
2018-08-30T11:53:13.092Z,38.40
2018-08-30T11:55:42.259Z,38.25
2018-08-30T11:58:11.324Z,38.77
2018-08-30T12:00:40.931Z,37.54
2018-08-30T12:03:10.289Z,39.95
2018-08-30T12:05:57.694Z,39.74
2018-08-30T12:08:26.729Z,37.71
2018-08-30T12:10:56.031Z,36.59
2018-08-30T12:13:24.997Z,36.58
2018-08-30T12:15:53.969Z,32.87
2018-08-30T12:18:23.004Z,31.78
2018-08-30T12:20:52.108Z,32.92
2018-08-30T12:23:21.146Z,32.29
2018-08-30T12:25:50.303Z,34.28
2018-08-30T12:28:21.068Z,35.02
2018-08-30T12:30:50.153Z,32.49
2018-08-30T12:33:19.252Z,31.46
2018-08-30T12:35:48.373Z,31.52
2018-08-30T12:38:17.414Z,32.45
2018-08-30T12:40:47.582Z,32.44
2018-08-30T12:43:23.503Z,33.00
2018-08-30T12:46:06.934Z,32.21
2018-08-30T12:48:44.229Z,31.48
2018-08-30T12:51:17.138Z,31.58
2018-08-30T12:53:51.344Z,30.00
2018-08-30T12:56:35.025Z,31.53
2018-08-30T12:59:12.489Z,36.46
2018-08-30T13:01:44.461Z,37.82
2018-08-30T13:04:16.108Z,39.23
2018-08-30T13:06:52.510Z,39.41
2018-08-30T13:09:21.904Z,39.96
2018-08-30T13:11:52.069Z,39.72
2018-08-30T13:14:21.137Z,37.35
2018-08-30T13:16:50.205Z,37.30
2018-08-30T13:19:19.567Z,36.22
2018-08-30T13:21:49.692Z,34.69
2018-08-30T13:24:19.522Z,35.47
2018-08-30T13:26:48.772Z,38.21
2018-08-30T13:29:18.364Z,38.77
2018-08-30T13:31:47.974Z,39.15
2018-08-30T13:34:17.787Z,39.51
2018-08-30T13:36:47.247Z,41.34
2018-08-30T13:39:16.914Z,41.83
2018-08-30T13:41:46.013Z,41.70
2018-08-30T13:44:15.774Z,39.10
2018-08-30T13:46:45.325Z,38.82
2018-08-30T13:49:14.620Z,38.76
2018-08-30T13:51:43.996Z,37.07
2018-08-30T13:54:13.397Z,38.18
2018-08-30T13:56:44.215Z,38.14
2018-08-30T13:59:14.343Z,39.04
2018-08-30T14:01:48.670Z,38.85
2018-08-30T14:04:18.587Z,38.79
2018-08-30T14:06:51.060Z,38.63
2018-08-30T14:09:21.751Z,39.83
2018-08-30T14:11:51.260Z,40.10
2018-08-30T14:14:20.451Z,38.66
2018-08-30T14:16:52.453Z,38.85
2018-08-30T14:19:25.011Z,38.12
2018-08-30T14:21:58.414Z,38.84
2018-08-30T14:24:28.775Z,37.81
2018-08-30T14:26:58.671Z,38.57
2018-08-30T14:29:27.570Z,37.60
2018-08-30T14:31:57.011Z,37.56
2018-08-30T14:34:26.207Z,37.67
2018-08-30T14:37:07.235Z,38.07
2018-08-30T14:39:37.026Z,37.84
2018-08-30T14:42:06.180Z,39.35
2018-08-30T14:44:35.217Z,39.38
2018-08-30T14:47:04.436Z,39.75
2018-08-30T14:49:33.404Z,39.56
2018-08-30T14:52:02.395Z,40.13
2018-08-30T14:54:31.605Z,40.25
2018-08-30T14:57:00.842Z,40.00
2018-08-30T14:59:30.658Z,40.53
2018-08-30T15:01:59.862Z,40.70
2018-08-30T15:04:28.842Z,41.04
2018-08-30T15:07:06.766Z,41.39
2018-08-30T15:09:35.747Z,41.98
2018-08-30T15:12:04.762Z,41.25
2018-08-30T15:14:46.179Z,41.41
2018-08-30T15:17:17.145Z,41.90
2018-08-30T15:19:46.414Z,42.00
2018-08-30T15:22:15.300Z,42.33
2018-08-30T15:24:44.387Z,43.07
2018-08-30T15:27:14.386Z,42.27
2018-08-30T15:29:44.072Z,43.52
2018-08-30T15:32:13.116Z,42.72
2018-08-30T15:34:42.639Z,43.82
2018-08-30T15:37:11.794Z,43.35
2018-08-30T15:39:43.588Z,43.63
2018-08-30T15:42:13.505Z,43.72
2018-08-30T15:44:42.570Z,44.07
2018-08-30T15:47:12.012Z,45.12
2018-08-30T15:49:41.364Z,45.32
2018-08-30T15:52:10.451Z,45.11
2018-08-30T15:54:40.223Z,46.98
2018-08-30T15:57:09.330Z,46.45
2018-08-30T15:59:49.587Z,46.94
2018-08-30T16:02:18.748Z,47.38
2018-08-30T16:04:47.800Z,47.37
2018-08-30T16:07:16.897Z,48.94
2018-08-30T16:09:45.884Z,48.72
2018-08-30T16:12:15.009Z,47.81
2018-08-30T16:14:44.076Z,48.63
2018-08-30T16:17:13.196Z,48.16
2018-08-30T16:19:56.383Z,49.06
2018-08-30T16:22:39.904Z,48.61
2018-08-30T16:25:08.993Z,49.52
2018-08-30T16:27:38.482Z,50.04
2018-08-30T16:30:07.463Z,49.95
2018-08-30T16:32:36.524Z,49.44
2018-08-30T16:35:05.847Z,49.67
2018-08-30T16:37:34.562Z,51.45
2018-08-30T16:40:08.763Z,51.64
2018-08-30T16:42:39.485Z,52.95
2018-08-30T16:45:08.495Z,53.09
2018-08-30T16:47:38.025Z,53.79
2018-08-30T16:50:07.060Z,54.37
2018-08-30T16:52:36.309Z,54.79
2018-08-30T16:55:12.054Z,55.95
2018-08-30T16:57:41.460Z,56.35
2018-08-30T17:00:10.581Z,55.83
2018-08-30T17:02:40.162Z,56.27
2018-08-30T17:05:09.260Z,57.44
2018-08-30T17:07:38.762Z,57.46
2018-08-30T17:10:07.737Z,58.39
2018-08-30T17:12:37.196Z,57.90
2018-08-30T17:15:06.569Z,58.42
2018-08-30T17:17:35.730Z,57.86
2018-08-30T17:20:06.404Z,58.72
2018-08-30T17:22:36.089Z,58.45
2018-08-30T17:25:05.237Z,59.06
2018-08-30T17:27:34.456Z,59.72
2018-08-30T17:30:03.447Z,59.69
2018-08-30T17:32:33.092Z,61.12
2018-08-30T17:35:02.144Z,61.53
2018-08-30T17:37:43.697Z,61.50
2018-08-30T17:40:13.030Z,62.58
2018-08-30T17:42:42.894Z,62.37
2018-08-30T17:45:12.525Z,62.68
2018-08-30T17:47:42.905Z,63.10
2018-08-30T17:50:13.649Z,63.92
2018-08-30T17:52:45.245Z,63.18
2018-08-30T17:55:40.615Z,64.40
2018-08-30T17:58:11.991Z,64.68
2018-08-30T18:00:43.664Z,65.31
2018-08-30T18:03:12.847Z,64.60
2018-08-30T18:05:41.958Z,64.93
2018-08-30T18:08:11.051Z,65.61
2018-08-30T18:10:41.228Z,65.68
2018-08-30T18:13:11.709Z,66.11
2018-08-30T18:15:42.040Z,65.66
2018-08-30T18:18:11.043Z,66.35
2018-08-30T18:20:40.741Z,65.97
2018-08-30T18:23:10.010Z,66.73
2018-08-30T18:25:39.816Z,67.18
2018-08-30T18:28:09.020Z,67.71
2018-08-30T18:30:39.925Z,68.02
2018-08-30T18:33:08.973Z,69.24
2018-08-30T18:35:38.567Z,69.77
2018-08-30T18:38:08.468Z,70.62
2018-08-30T18:40:38.246Z,72.17
2018-08-30T18:43:08.218Z,73.25
2018-08-30T18:45:39.050Z,73.94
2018-08-30T18:48:09.417Z,73.94
2018-08-30T18:50:39.079Z,74.82
2018-08-30T18:53:08.192Z,76.74
2018-08-30T18:55:38.182Z,77.41
2018-08-30T18:58:07.772Z,77.68
2018-08-30T19:00:37.342Z,78.19
2018-08-30T19:03:07.363Z,79.41
2018-08-30T19:05:39.378Z,79.47
2018-08-30T19:08:08.737Z,79.29
2018-08-30T19:10:39.225Z,79.62
2018-08-30T19:13:08.656Z,80.22
2018-08-30T19:15:43.483Z,81.23
2018-08-30T19:18:17.619Z,81.92
2018-08-30T19:20:51.928Z,82.68
2018-08-30T19:23:21.572Z,82.84
2018-08-30T19:25:51.258Z,82.58
2018-08-30T19:28:20.466Z,83.76
2018-08-30T19:30:49.908Z,84.09
2018-08-30T19:33:20.985Z,85.20
2018-08-30T19:35:55.243Z,85.00
2018-08-30T19:38:24.330Z,85.51
2018-08-30T19:40:58.355Z,85.73
2018-08-30T19:43:27.892Z,86.67
2018-08-30T19:45:56.990Z,86.92
2018-08-30T19:48:26.164Z,86.82
2018-08-30T19:50:55.786Z,86.17
2018-08-30T19:53:24.844Z,85.74
2018-08-30T19:58:44.829Z,87.45
2018-08-30T20:01:14.189Z,87.70
2018-08-30T20:03:43.349Z,88.81
2018-08-30T20:06:12.468Z,89.06
2018-08-30T20:08:42.415Z,90.26
2018-08-30T20:11:12.024Z,91.12
2018-08-30T20:13:42.201Z,91.48
2018-08-30T20:16:11.240Z,90.88
2018-08-30T20:18:41.331Z,90.35
2018-08-30T20:21:10.504Z,90.69
2018-08-30T20:23:40.114Z,91.04
2018-08-30T20:26:09.143Z,91.38
2018-08-30T20:28:39.133Z,91.59
2018-08-30T20:31:08.147Z,91.01
2018-08-30T20:33:38.989Z,91.33
2018-08-30T20:36:08.271Z,92.44
2018-08-30T20:38:37.251Z,93.20
2018-08-30T20:41:06.607Z,92.51
2018-08-30T20:43:35.803Z,92.70
2018-08-30T20:46:04.854Z,92.42
2018-08-30T20:48:36.853Z,92.13
2018-08-30T20:51:07.253Z,92.75
2018-08-30T20:53:37.039Z,92.17
2018-08-30T20:56:06.180Z,92.30
2018-08-30T20:58:35.261Z,92.58
2018-08-30T21:01:04.787Z,91.83
2018-08-30T21:03:34.135Z,92.36
2018-08-30T21:06:03.572Z,92.98
2018-08-30T21:08:32.741Z,92.37
2018-08-30T21:11:11.771Z,93.04
2018-08-30T21:16:41.725Z,93.61
2018-08-30T21:19:12.529Z,93.94
2018-08-30T21:21:44.286Z,93.75
2018-08-30T21:24:13.377Z,94.30
2018-08-30T21:26:42.399Z,94.17
2018-08-30T21:29:11.686Z,93.77
2018-08-30T21:31:42.230Z,94.20
2018-08-30T21:34:11.328Z,93.09
2018-08-30T21:36:41.813Z,94.17
2018-08-30T21:39:11.008Z,93.62
2018-08-30T21:41:54.446Z,93.17
2018-08-30T21:44:23.590Z,94.55
2018-08-30T21:46:53.044Z,93.39
2018-08-30T21:49:23.381Z,91.33
2018-08-30T21:55:15.657Z,93.04
2018-08-30T21:57:46.991Z,93.66
2018-08-30T22:00:20.290Z,95.50
2018-08-30T22:02:49.523Z,94.66
2018-08-30T22:05:19.644Z,94.39
2018-08-30T22:07:48.798Z,94.75
2018-08-30T22:10:20.044Z,95.75
2018-08-30T22:12:49.194Z,96.50
2018-08-30T22:15:37.720Z,97.21
2018-08-30T22:18:07.724Z,97.63
2018-08-30T22:20:36.836Z,98.38
2018-08-30T22:23:06.017Z,98.82
2018-08-30T22:25:40.261Z,98.82
2018-08-30T22:28:13.946Z,99.11
2018-08-30T22:30:48.571Z,98.71
2018-08-30T22:33:43.727Z,99.20
2018-08-30T22:36:26.156Z,98.99
2018-08-30T22:39:05.204Z,98.13
2018-08-30T22:41:47.101Z,98.98
2018-08-30T22:44:17.143Z,99.58
2018-08-30T22:46:51.046Z,99.67
2018-08-30T22:49:20.592Z,100.00
2018-08-30T22:51:52.633Z,100.00
2018-08-30T22:54:21.836Z,100.00
2018-08-30T22:56:50.913Z,100.00
2018-08-30T22:59:20.402Z,100.00
2018-08-30T23:01:50.467Z,100.00
2018-08-30T23:04:19.640Z,100.00
2018-08-30T23:06:50.908Z,100.00
2018-08-30T23:09:20.714Z,100.00
2018-08-30T23:11:51.211Z,100.00
2018-08-30T23:14:21.140Z,100.00
2018-08-30T23:16:50.984Z,100.00
2018-08-30T23:19:21.013Z,100.00
2018-08-30T23:21:50.238Z,100.00
2018-08-30T23:24:19.402Z,100.00
2018-08-30T23:27:12.442Z,100.00
2018-08-30T23:29:42.036Z,100.00
2018-08-30T23:32:24.273Z,100.00
2018-08-30T23:34:53.640Z,100.00
2018-08-30T23:37:22.844Z,100.00
2018-08-30T23:39:52.183Z,100.00
2018-08-30T23:42:21.339Z,100.00
2018-08-30T23:44:50.902Z,100.00
2018-08-30T23:47:20.049Z,100.00
2018-08-30T23:49:50.430Z,100.00
2018-08-30T23:52:20.881Z,100.00
2018-08-30T23:54:50.572Z,100.00
2018-08-30T23:57:19.629Z,100.00
2018-08-30T23:59:59.641Z,100.00
